sensor_id;sensor_type;location;lat;lon;timestamp;temperature;humidity
19437;DHT22;9854;50.968;4.168;2023-06-22T00:00:27;21.90;99.90
19437;DHT22;9854;50.968;4.168;2023-06-22T00:02:53;22.00;99.90
19437;DHT22;9854;50.968;4.168;2023-06-22T00:05:18;22.10;99.90
19437;DHT22;9854;50.968;4.168;2023-06-22T00:07:44;22.20;99.90
19437;DHT22;9854;50.968;4.168;2023-06-22T00:10:10;22.00;99.90
19437;DHT22;9854;50.968;4.168;2023-06-22T00:12:35;22.00;99.90
19437;DHT22;9854;50.968;4.168;2023-06-22T00:15:01;21.80;99.90
19437;DHT22;9854;50.968;4.168;2023-06-22T00:17:27;21.70;99.90
19437;DHT22;9854;50.968;4.168;2023-06-22T00:19:52;21.70;99.90
19437;DHT22;9854;50.968;4.168;2023-06-22T00:22:21;21.90;99.90
19437;DHT22;9854;50.968;4.168;2023-06-22T00:24:55;21.80;99.90
19437;DHT22;9854;50.968;4.168;2023-06-22T00:27:20;21.90;99.90
19437;DHT22;9854;50.968;4.168;2023-06-22T00:29:46;21.80;99.90
19437;DHT22;9854;50.968;4.168;2023-06-22T00:32:12;21.70;99.90
19437;DHT22;9854;50.968;4.168;2023-06-22T00:34:37;21.60;99.90
19437;DHT22;9854;50.968;4.168;2023-06-22T00:37:03;21.50;99.90
19437;DHT22;9854;50.968;4.168;2023-06-22T00:39:29;21.40;99.90
19437;DHT22;9854;50.968;4.168;2023-06-22T00:41:55;21.30;99.90
19437;DHT22;9854;50.968;4.168;2023-06-22T00:44:20;21.20;99.90
19437;DHT22;9854;50.968;4.168;2023-06-22T00:46:46;21.10;99.90
19437;DHT22;9854;50.968;4.168;2023-06-22T00:49:12;21.10;99.90
19437;DHT22;9854;50.968;4.168;2023-06-22T00:51:38;21.10;99.90
19437;DHT22;9854;50.968;4.168;2023-06-22T00:54:05;21.10;99.90
19437;DHT22;9854;50.968;4.168;2023-06-22T00:56:32;21.30;99.90
19437;DHT22;9854;50.968;4.168;2023-06-22T00:58:58;21.30;99.90
19437;DHT22;9854;50.968;4.168;2023-06-22T01:01:25;21.20;99.90
19437;DHT22;9854;50.968;4.168;2023-06-22T01:03:50;21.20;99.90
19437;DHT22;9854;50.968;4.168;2023-06-22T01:06:22;21.10;99.90
19437;DHT22;9854;50.968;4.168;2023-06-22T01:09:00;21.00;99.90
19437;DHT22;9854;50.968;4.168;2023-06-22T01:11:39;21.00;99.90
19437;DHT22;9854;50.968;4.168;2023-06-22T01:14:14;21.10;99.90
19437;DHT22;9854;50.968;4.168;2023-06-22T01:16:41;21.40;99.90
19437;DHT22;9854;50.968;4.168;2023-06-22T01:19:50;21.20;99.90
19437;DHT22;9854;50.968;4.168;2023-06-22T01:22:24;21.00;99.90
19437;DHT22;9854;50.968;4.168;2023-06-22T01:25:21;20.90;99.90
19437;DHT22;9854;50.968;4.168;2023-06-22T01:30:18;20.90;99.90
19437;DHT22;9854;50.968;4.168;2023-06-22T01:32:44;20.90;99.90
19437;DHT22;9854;50.968;4.168;2023-06-22T01:35:12;20.90;99.90
19437;DHT22;9854;50.968;4.168;2023-06-22T01:37:38;20.90;99.90
19437;DHT22;9854;50.968;4.168;2023-06-22T01:40:06;21.00;99.90
19437;DHT22;9854;50.968;4.168;2023-06-22T01:42:34;20.90;99.90
19437;DHT22;9854;50.968;4.168;2023-06-22T01:45:00;20.90;99.90
19437;DHT22;9854;50.968;4.168;2023-06-22T01:47:27;20.80;99.90
19437;DHT22;9854;50.968;4.168;2023-06-22T01:49:53;20.80;99.90
19437;DHT22;9854;50.968;4.168;2023-06-22T01:52:19;20.90;99.90
19437;DHT22;9854;50.968;4.168;2023-06-22T01:54:46;20.80;99.90
19437;DHT22;9854;50.968;4.168;2023-06-22T01:57:12;20.80;99.90
19437;DHT22;9854;50.968;4.168;2023-06-22T01:59:57;20.80;99.90
19437;DHT22;9854;50.968;4.168;2023-06-22T02:02:24;20.70;99.90
19437;DHT22;9854;50.968;4.168;2023-06-22T02:04:58;20.80;99.90
19437;DHT22;9854;50.968;4.168;2023-06-22T02:07:29;20.80;99.90
19437;DHT22;9854;50.968;4.168;2023-06-22T02:09:59;20.60;99.90
19437;DHT22;9854;50.968;4.168;2023-06-22T02:12:26;20.50;99.90
19437;DHT22;9854;50.968;4.168;2023-06-22T02:14:53;20.40;99.90
19437;DHT22;9854;50.968;4.168;2023-06-22T02:17:19;20.40;99.90
19437;DHT22;9854;50.968;4.168;2023-06-22T02:19:45;20.40;99.90
19437;DHT22;9854;50.968;4.168;2023-06-22T02:22:11;20.50;99.90
19437;DHT22;9854;50.968;4.168;2023-06-22T02:24:38;20.60;99.90
19437;DHT22;9854;50.968;4.168;2023-06-22T02:27:04;20.60;99.90
19437;DHT22;9854;50.968;4.168;2023-06-22T02:29:31;20.50;99.90
19437;DHT22;9854;50.968;4.168;2023-06-22T02:31:56;20.50;99.90
19437;DHT22;9854;50.968;4.168;2023-06-22T02:34:22;20.60;99.90
19437;DHT22;9854;50.968;4.168;2023-06-22T02:36:48;20.50;99.90
19437;DHT22;9854;50.968;4.168;2023-06-22T02:39:23;20.60;99.90
19437;DHT22;9854;50.968;4.168;2023-06-22T02:41:50;20.60;99.90
19437;DHT22;9854;50.968;4.168;2023-06-22T02:44:16;20.60;99.90
19437;DHT22;9854;50.968;4.168;2023-06-22T02:46:42;20.50;99.90
19437;DHT22;9854;50.968;4.168;2023-06-22T02:49:08;20.40;99.90
19437;DHT22;9854;50.968;4.168;2023-06-22T02:51:34;20.30;99.90
19437;DHT22;9854;50.968;4.168;2023-06-22T02:54:00;20.40;99.90
19437;DHT22;9854;50.968;4.168;2023-06-22T02:56:26;20.40;99.90
19437;DHT22;9854;50.968;4.168;2023-06-22T02:58:52;20.30;99.90
19437;DHT22;9854;50.968;4.168;2023-06-22T03:01:17;20.30;99.90
19437;DHT22;9854;50.968;4.168;2023-06-22T03:03:49;20.30;99.90
19437;DHT22;9854;50.968;4.168;2023-06-22T03:06:15;20.30;99.90
19437;DHT22;9854;50.968;4.168;2023-06-22T03:08:41;20.20;99.90
19437;DHT22;9854;50.968;4.168;2023-06-22T03:11:09;20.10;99.90
19437;DHT22;9854;50.968;4.168;2023-06-22T03:13:35;20.10;99.90
19437;DHT22;9854;50.968;4.168;2023-06-22T03:16:00;20.10;99.90
19437;DHT22;9854;50.968;4.168;2023-06-22T03:18:26;20.10;99.90
19437;DHT22;9854;50.968;4.168;2023-06-22T03:20:52;20.00;99.90
19437;DHT22;9854;50.968;4.168;2023-06-22T03:23:18;20.00;99.90
19437;DHT22;9854;50.968;4.168;2023-06-22T03:25:43;20.00;99.90
19437;DHT22;9854;50.968;4.168;2023-06-22T03:28:12;20.00;99.90
19437;DHT22;9854;50.968;4.168;2023-06-22T03:30:38;19.90;99.90
19437;DHT22;9854;50.968;4.168;2023-06-22T03:33:03;19.90;99.90
19437;DHT22;9854;50.968;4.168;2023-06-22T03:35:29;19.80;99.90
19437;DHT22;9854;50.968;4.168;2023-06-22T03:37:54;19.80;99.90
19437;DHT22;9854;50.968;4.168;2023-06-22T03:40:20;19.90;99.90
19437;DHT22;9854;50.968;4.168;2023-06-22T03:42:46;19.90;99.90
19437;DHT22;9854;50.968;4.168;2023-06-22T03:45:12;19.80;99.90
19437;DHT22;9854;50.968;4.168;2023-06-22T03:47:37;19.90;99.90
19437;DHT22;9854;50.968;4.168;2023-06-22T03:50:03;20.10;99.90
19437;DHT22;9854;50.968;4.168;2023-06-22T03:52:29;20.00;99.90
19437;DHT22;9854;50.968;4.168;2023-06-22T03:54:56;20.10;99.90
19437;DHT22;9854;50.968;4.168;2023-06-22T03:57:21;20.00;99.90
19437;DHT22;9854;50.968;4.168;2023-06-22T03:59:47;19.90;99.90
19437;DHT22;9854;50.968;4.168;2023-06-22T04:02:12;19.80;99.90
19437;DHT22;9854;50.968;4.168;2023-06-22T04:04:38;19.70;99.90
19437;DHT22;9854;50.968;4.168;2023-06-22T04:07:05;19.60;99.90
19437;DHT22;9854;50.968;4.168;2023-06-22T04:09:30;19.60;99.90
19437;DHT22;9854;50.968;4.168;2023-06-22T04:11:56;19.60;99.90
19437;DHT22;9854;50.968;4.168;2023-06-22T04:14:21;19.60;99.90
19437;DHT22;9854;50.968;4.168;2023-06-22T04:16:47;19.50;99.90
19437;DHT22;9854;50.968;4.168;2023-06-22T04:19:13;19.50;99.90
19437;DHT22;9854;50.968;4.168;2023-06-22T04:21:43;19.50;99.90
19437;DHT22;9854;50.968;4.168;2023-06-22T04:24:10;19.60;99.90
19437;DHT22;9854;50.968;4.168;2023-06-22T04:26:36;19.60;99.90
19437;DHT22;9854;50.968;4.168;2023-06-22T04:29:05;19.70;99.90
19437;DHT22;9854;50.968;4.168;2023-06-22T04:31:35;19.70;99.90
19437;DHT22;9854;50.968;4.168;2023-06-22T04:34:05;19.70;99.90
19437;DHT22;9854;50.968;4.168;2023-06-22T04:36:41;19.70;99.90
19437;DHT22;9854;50.968;4.168;2023-06-22T04:39:10;19.90;99.90
19437;DHT22;9854;50.968;4.168;2023-06-22T04:41:40;19.90;99.90
19437;DHT22;9854;50.968;4.168;2023-06-22T04:44:18;20.00;99.90
19437;DHT22;9854;50.968;4.168;2023-06-22T04:46:50;20.00;99.90
19437;DHT22;9854;50.968;4.168;2023-06-22T04:49:20;20.20;99.90
19437;DHT22;9854;50.968;4.168;2023-06-22T04:51:46;20.20;99.90
19437;DHT22;9854;50.968;4.168;2023-06-22T04:54:12;20.20;99.90
19437;DHT22;9854;50.968;4.168;2023-06-22T04:56:37;20.30;99.90
19437;DHT22;9854;50.968;4.168;2023-06-22T04:59:06;20.50;99.90
19437;DHT22;9854;50.968;4.168;2023-06-22T05:01:33;20.70;99.90
19437;DHT22;9854;50.968;4.168;2023-06-22T05:04:00;21.00;99.90
19437;DHT22;9854;50.968;4.168;2023-06-22T05:06:27;21.00;99.90
19437;DHT22;9854;50.968;4.168;2023-06-22T05:08:56;20.90;99.90
19437;DHT22;9854;50.968;4.168;2023-06-22T05:11:28;20.90;99.90
19437;DHT22;9854;50.968;4.168;2023-06-22T05:13:54;21.00;99.90
19437;DHT22;9854;50.968;4.168;2023-06-22T05:16:21;21.10;99.90
19437;DHT22;9854;50.968;4.168;2023-06-22T05:18:53;21.20;99.90
19437;DHT22;9854;50.968;4.168;2023-06-22T05:21:25;21.10;99.90
19437;DHT22;9854;50.968;4.168;2023-06-22T05:23:54;21.00;99.90
19437;DHT22;9854;50.968;4.168;2023-06-22T05:26:22;20.90;99.90
19437;DHT22;9854;50.968;4.168;2023-06-22T05:28:48;21.10;99.90
19437;DHT22;9854;50.968;4.168;2023-06-22T05:31:17;21.10;99.90
19437;DHT22;9854;50.968;4.168;2023-06-22T05:33:43;21.00;99.90
19437;DHT22;9854;50.968;4.168;2023-06-22T05:36:09;20.80;99.90
19437;DHT22;9854;50.968;4.168;2023-06-22T05:38:36;20.90;99.90
19437;DHT22;9854;50.968;4.168;2023-06-22T05:41:01;21.10;99.90
19437;DHT22;9854;50.968;4.168;2023-06-22T05:43:27;21.20;99.90
19437;DHT22;9854;50.968;4.168;2023-06-22T05:45:53;21.10;99.90
19437;DHT22;9854;50.968;4.168;2023-06-22T05:48:18;21.10;99.90
19437;DHT22;9854;50.968;4.168;2023-06-22T05:50:44;20.90;99.90
19437;DHT22;9854;50.968;4.168;2023-06-22T05:53:10;20.90;99.90
19437;DHT22;9854;50.968;4.168;2023-06-22T05:55:36;20.80;99.90
19437;DHT22;9854;50.968;4.168;2023-06-22T05:58:01;20.90;99.90
19437;DHT22;9854;50.968;4.168;2023-06-22T06:00:29;21.00;99.90
19437;DHT22;9854;50.968;4.168;2023-06-22T06:02:54;21.00;99.90
19437;DHT22;9854;50.968;4.168;2023-06-22T06:05:20;21.00;99.90
19437;DHT22;9854;50.968;4.168;2023-06-22T06:07:46;21.10;99.90
19437;DHT22;9854;50.968;4.168;2023-06-22T06:10:12;21.50;99.90
19437;DHT22;9854;50.968;4.168;2023-06-22T06:12:38;21.60;99.90
19437;DHT22;9854;50.968;4.168;2023-06-22T06:15:04;21.50;99.90
19437;DHT22;9854;50.968;4.168;2023-06-22T06:17:30;21.60;99.90
19437;DHT22;9854;50.968;4.168;2023-06-22T06:19:56;21.80;99.90
19437;DHT22;9854;50.968;4.168;2023-06-22T06:22:21;21.80;99.90
19437;DHT22;9854;50.968;4.168;2023-06-22T06:24:49;21.80;99.90
19437;DHT22;9854;50.968;4.168;2023-06-22T06:27:14;21.90;99.90
19437;DHT22;9854;50.968;4.168;2023-06-22T06:29:40;21.90;99.90
19437;DHT22;9854;50.968;4.168;2023-06-22T06:32:06;22.20;99.90
19437;DHT22;9854;50.968;4.168;2023-06-22T06:34:32;22.40;99.90
19437;DHT22;9854;50.968;4.168;2023-06-22T06:36:57;22.60;99.90
19437;DHT22;9854;50.968;4.168;2023-06-22T06:39:23;22.80;99.90
19437;DHT22;9854;50.968;4.168;2023-06-22T06:41:49;22.90;99.90
19437;DHT22;9854;50.968;4.168;2023-06-22T06:44:14;23.10;99.90
19437;DHT22;9854;50.968;4.168;2023-06-22T06:46:40;23.30;99.90
19437;DHT22;9854;50.968;4.168;2023-06-22T06:49:07;22.90;99.90
19437;DHT22;9854;50.968;4.168;2023-06-22T06:51:32;22.60;99.90
19437;DHT22;9854;50.968;4.168;2023-06-22T06:53:58;22.30;99.90
19437;DHT22;9854;50.968;4.168;2023-06-22T06:56:24;22.20;99.90
19437;DHT22;9854;50.968;4.168;2023-06-22T06:58:53;22.20;99.90
19437;DHT22;9854;50.968;4.168;2023-06-22T07:01:18;22.20;99.90
19437;DHT22;9854;50.968;4.168;2023-06-22T07:03:45;22.20;99.90
19437;DHT22;9854;50.968;4.168;2023-06-22T07:06:10;22.50;99.90
19437;DHT22;9854;50.968;4.168;2023-06-22T07:08:36;22.70;99.90
19437;DHT22;9854;50.968;4.168;2023-06-22T07:11:02;22.80;99.90
19437;DHT22;9854;50.968;4.168;2023-06-22T07:13:28;22.90;99.90
19437;DHT22;9854;50.968;4.168;2023-06-22T07:15:54;23.00;99.90
19437;DHT22;9854;50.968;4.168;2023-06-22T07:18:19;23.20;99.90
19437;DHT22;9854;50.968;4.168;2023-06-22T07:20:45;23.30;99.90
19437;DHT22;9854;50.968;4.168;2023-06-22T07:23:10;23.10;99.90
19437;DHT22;9854;50.968;4.168;2023-06-22T07:25:36;23.00;99.90
19437;DHT22;9854;50.968;4.168;2023-06-22T07:28:04;22.80;99.90
19437;DHT22;9854;50.968;4.168;2023-06-22T07:30:31;22.80;99.90
19437;DHT22;9854;50.968;4.168;2023-06-22T07:32:57;22.70;99.90
19437;DHT22;9854;50.968;4.168;2023-06-22T07:35:24;22.60;99.90
19437;DHT22;9854;50.968;4.168;2023-06-22T07:37:49;22.80;99.90
19437;DHT22;9854;50.968;4.168;2023-06-22T07:40:15;22.50;99.90
19437;DHT22;9854;50.968;4.168;2023-06-22T07:42:41;22.60;99.90
19437;DHT22;9854;50.968;4.168;2023-06-22T07:45:07;22.50;99.90
19437;DHT22;9854;50.968;4.168;2023-06-22T07:47:34;22.60;99.90
19437;DHT22;9854;50.968;4.168;2023-06-22T07:50:01;22.90;99.90
19437;DHT22;9854;50.968;4.168;2023-06-22T07:52:30;23.10;99.90
19437;DHT22;9854;50.968;4.168;2023-06-22T07:54:56;23.30;99.90
19437;DHT22;9854;50.968;4.168;2023-06-22T07:57:21;23.70;99.90
19437;DHT22;9854;50.968;4.168;2023-06-22T07:59:47;23.80;99.90
19437;DHT22;9854;50.968;4.168;2023-06-22T08:02:13;24.10;99.90
19437;DHT22;9854;50.968;4.168;2023-06-22T08:04:39;23.70;99.90
19437;DHT22;9854;50.968;4.168;2023-06-22T08:07:05;23.40;99.90
19437;DHT22;9854;50.968;4.168;2023-06-22T08:09:32;23.60;99.90
19437;DHT22;9854;50.968;4.168;2023-06-22T08:11:58;23.50;99.90
19437;DHT22;9854;50.968;4.168;2023-06-22T08:14:29;23.90;99.90
19437;DHT22;9854;50.968;4.168;2023-06-22T08:16:55;23.80;99.90
19437;DHT22;9854;50.968;4.168;2023-06-22T08:19:20;23.70;99.90
19437;DHT22;9854;50.968;4.168;2023-06-22T08:21:46;23.70;99.90
19437;DHT22;9854;50.968;4.168;2023-06-22T08:24:12;23.90;99.90
19437;DHT22;9854;50.968;4.168;2023-06-22T08:26:38;24.00;99.90
19437;DHT22;9854;50.968;4.168;2023-06-22T08:29:04;24.40;99.90
19437;DHT22;9854;50.968;4.168;2023-06-22T08:31:30;24.70;99.90
19437;DHT22;9854;50.968;4.168;2023-06-22T08:33:59;24.40;99.90
19437;DHT22;9854;50.968;4.168;2023-06-22T08:36:25;24.40;99.90
19437;DHT22;9854;50.968;4.168;2023-06-22T08:38:54;24.50;99.90
19437;DHT22;9854;50.968;4.168;2023-06-22T08:41:26;24.60;99.90
19437;DHT22;9854;50.968;4.168;2023-06-22T08:43:52;24.70;99.90
19437;DHT22;9854;50.968;4.168;2023-06-22T08:46:19;24.70;99.90
19437;DHT22;9854;50.968;4.168;2023-06-22T08:48:48;24.80;99.90
19437;DHT22;9854;50.968;4.168;2023-06-22T08:51:14;24.80;99.90
19437;DHT22;9854;50.968;4.168;2023-06-22T08:53:40;24.60;99.90
19437;DHT22;9854;50.968;4.168;2023-06-22T08:56:05;24.60;99.90
19437;DHT22;9854;50.968;4.168;2023-06-22T08:58:31;24.60;99.90
19437;DHT22;9854;50.968;4.168;2023-06-22T09:00:57;24.20;99.90
19437;DHT22;9854;50.968;4.168;2023-06-22T09:03:26;24.00;99.90
19437;DHT22;9854;50.968;4.168;2023-06-22T09:05:52;24.10;99.90
19437;DHT22;9854;50.968;4.168;2023-06-22T09:08:18;24.20;99.90
19437;DHT22;9854;50.968;4.168;2023-06-22T09:10:43;24.30;99.90
19437;DHT22;9854;50.968;4.168;2023-06-22T09:13:09;24.40;99.90
19437;DHT22;9854;50.968;4.168;2023-06-22T09:15:35;24.40;99.90
19437;DHT22;9854;50.968;4.168;2023-06-22T09:18:00;24.40;99.90
19437;DHT22;9854;50.968;4.168;2023-06-22T09:20:26;24.40;99.90
19437;DHT22;9854;50.968;4.168;2023-06-22T09:22:52;24.40;99.90
19437;DHT22;9854;50.968;4.168;2023-06-22T09:25:17;24.40;99.90
19437;DHT22;9854;50.968;4.168;2023-06-22T09:27:46;24.20;99.90
19437;DHT22;9854;50.968;4.168;2023-06-22T09:30:12;23.80;99.90
19437;DHT22;9854;50.968;4.168;2023-06-22T09:32:38;23.50;99.90
19437;DHT22;9854;50.968;4.168;2023-06-22T09:35:05;23.40;99.90
19437;DHT22;9854;50.968;4.168;2023-06-22T09:37:35;23.30;99.90
19437;DHT22;9854;50.968;4.168;2023-06-22T09:40:01;23.20;99.90
19437;DHT22;9854;50.968;4.168;2023-06-22T09:42:26;23.40;99.90
19437;DHT22;9854;50.968;4.168;2023-06-22T09:44:52;23.60;99.90
19437;DHT22;9854;50.968;4.168;2023-06-22T09:47:18;23.80;99.90
19437;DHT22;9854;50.968;4.168;2023-06-22T09:49:43;23.80;99.90
19437;DHT22;9854;50.968;4.168;2023-06-22T09:52:09;23.80;99.90
19437;DHT22;9854;50.968;4.168;2023-06-22T09:54:36;23.80;99.90
19437;DHT22;9854;50.968;4.168;2023-06-22T09:57:02;23.80;99.90
19437;DHT22;9854;50.968;4.168;2023-06-22T09:59:27;23.90;99.90
19437;DHT22;9854;50.968;4.168;2023-06-22T10:01:53;24.00;99.90
19437;DHT22;9854;50.968;4.168;2023-06-22T10:04:19;24.20;99.90
19437;DHT22;9854;50.968;4.168;2023-06-22T10:06:44;24.10;99.90
19437;DHT22;9854;50.968;4.168;2023-06-22T10:09:10;23.90;99.90
19437;DHT22;9854;50.968;4.168;2023-06-22T10:11:35;23.60;99.90
19437;DHT22;9854;50.968;4.168;2023-06-22T10:14:02;23.40;99.90
19437;DHT22;9854;50.968;4.168;2023-06-22T10:16:33;23.20;99.90
19437;DHT22;9854;50.968;4.168;2023-06-22T10:19:00;23.20;99.90
19437;DHT22;9854;50.968;4.168;2023-06-22T10:21:26;23.20;99.90
19437;DHT22;9854;50.968;4.168;2023-06-22T10:23:54;23.10;99.90
19437;DHT22;9854;50.968;4.168;2023-06-22T10:26:19;23.00;99.90
19437;DHT22;9854;50.968;4.168;2023-06-22T10:28:45;22.80;99.90
19437;DHT22;9854;50.968;4.168;2023-06-22T10:31:10;22.60;99.90
19437;DHT22;9854;50.968;4.168;2023-06-22T10:33:36;22.60;99.90
19437;DHT22;9854;50.968;4.168;2023-06-22T10:36:02;22.60;99.90
19437;DHT22;9854;50.968;4.168;2023-06-22T10:38:27;22.60;99.90
19437;DHT22;9854;50.968;4.168;2023-06-22T10:40:53;22.60;99.90
19437;DHT22;9854;50.968;4.168;2023-06-22T10:43:19;22.60;99.90
19437;DHT22;9854;50.968;4.168;2023-06-22T10:45:45;22.60;99.90
19437;DHT22;9854;50.968;4.168;2023-06-22T10:48:10;22.60;99.90
19437;DHT22;9854;50.968;4.168;2023-06-22T10:50:36;22.50;99.90
19437;DHT22;9854;50.968;4.168;2023-06-22T10:53:02;22.40;99.90
19437;DHT22;9854;50.968;4.168;2023-06-22T10:55:27;21.80;99.90
19437;DHT22;9854;50.968;4.168;2023-06-22T10:57:53;21.20;99.90
19437;DHT22;9854;50.968;4.168;2023-06-22T11:00:18;20.90;99.90
19437;DHT22;9854;50.968;4.168;2023-06-22T11:02:44;20.50;99.90
19437;DHT22;9854;50.968;4.168;2023-06-22T11:05:10;20.60;99.90
19437;DHT22;9854;50.968;4.168;2023-06-22T11:07:37;20.40;99.90
19437;DHT22;9854;50.968;4.168;2023-06-22T11:10:06;20.20;99.90
19437;DHT22;9854;50.968;4.168;2023-06-22T11:12:32;20.20;99.90
19437;DHT22;9854;50.968;4.168;2023-06-22T11:14:58;20.40;99.90
19437;DHT22;9854;50.968;4.168;2023-06-22T11:17:23;20.70;99.90
19437;DHT22;9854;50.968;4.168;2023-06-22T11:19:49;20.80;99.90
19437;DHT22;9854;50.968;4.168;2023-06-22T11:22:15;21.00;99.90
19437;DHT22;9854;50.968;4.168;2023-06-22T11:24:40;20.80;99.90
19437;DHT22;9854;50.968;4.168;2023-06-22T11:27:06;20.60;99.90
19437;DHT22;9854;50.968;4.168;2023-06-22T11:29:32;20.60;99.90
19437;DHT22;9854;50.968;4.168;2023-06-22T11:31:57;21.00;99.90
19437;DHT22;9854;50.968;4.168;2023-06-22T11:34:23;21.00;99.90
19437;DHT22;9854;50.968;4.168;2023-06-22T11:36:49;20.80;99.90
19437;DHT22;9854;50.968;4.168;2023-06-22T11:39:14;20.60;99.90
19437;DHT22;9854;50.968;4.168;2023-06-22T11:41:40;20.60;99.90
19437;DHT22;9854;50.968;4.168;2023-06-22T11:44:07;21.00;99.90
19437;DHT22;9854;50.968;4.168;2023-06-22T11:46:32;21.40;99.90
19437;DHT22;9854;50.968;4.168;2023-06-22T11:48:58;21.70;99.90
19437;DHT22;9854;50.968;4.168;2023-06-22T11:51:24;21.90;99.90
19437;DHT22;9854;50.968;4.168;2023-06-22T11:53:49;21.90;99.90
19437;DHT22;9854;50.968;4.168;2023-06-22T11:56:15;22.00;99.90
19437;DHT22;9854;50.968;4.168;2023-06-22T11:58:41;22.10;99.90
19437;DHT22;9854;50.968;4.168;2023-06-22T12:01:06;22.20;99.90
19437;DHT22;9854;50.968;4.168;2023-06-22T12:03:32;22.10;99.90
19437;DHT22;9854;50.968;4.168;2023-06-22T12:05:57;22.00;99.90
19437;DHT22;9854;50.968;4.168;2023-06-22T12:08:23;22.10;99.90
19437;DHT22;9854;50.968;4.168;2023-06-22T12:10:50;22.30;99.90
19437;DHT22;9854;50.968;4.168;2023-06-22T12:13:15;22.30;99.90
19437;DHT22;9854;50.968;4.168;2023-06-22T12:15:41;22.10;99.90
19437;DHT22;9854;50.968;4.168;2023-06-22T12:18:09;22.20;99.90
19437;DHT22;9854;50.968;4.168;2023-06-22T12:20:35;22.30;99.90
19437;DHT22;9854;50.968;4.168;2023-06-22T12:23:01;22.30;99.90
19437;DHT22;9854;50.968;4.168;2023-06-22T12:25:27;22.30;99.90
19437;DHT22;9854;50.968;4.168;2023-06-22T12:27:52;22.30;99.90
19437;DHT22;9854;50.968;4.168;2023-06-22T12:30:19;22.10;99.90
19437;DHT22;9854;50.968;4.168;2023-06-22T12:32:44;22.20;99.90
19437;DHT22;9854;50.968;4.168;2023-06-22T12:35:10;22.10;99.90
19437;DHT22;9854;50.968;4.168;2023-06-22T12:37:40;21.90;99.90
19437;DHT22;9854;50.968;4.168;2023-06-22T12:40:07;21.90;99.90
19437;DHT22;9854;50.968;4.168;2023-06-22T12:42:32;21.70;99.90
19437;DHT22;9854;50.968;4.168;2023-06-22T12:44:58;21.60;99.90
19437;DHT22;9854;50.968;4.168;2023-06-22T12:47:24;21.50;99.90
19437;DHT22;9854;50.968;4.168;2023-06-22T12:49:49;21.40;99.90
19437;DHT22;9854;50.968;4.168;2023-06-22T12:52:15;21.40;99.90
19437;DHT22;9854;50.968;4.168;2023-06-22T12:54:41;21.40;99.90
19437;DHT22;9854;50.968;4.168;2023-06-22T12:57:06;21.30;99.90
19437;DHT22;9854;50.968;4.168;2023-06-22T12:59:32;21.30;99.90
19437;DHT22;9854;50.968;4.168;2023-06-22T13:01:57;21.40;99.90
19437;DHT22;9854;50.968;4.168;2023-06-22T13:04:23;21.60;99.90
19437;DHT22;9854;50.968;4.168;2023-06-22T13:06:49;21.60;99.90
19437;DHT22;9854;50.968;4.168;2023-06-22T13:09:15;21.60;99.90
19437;DHT22;9854;50.968;4.168;2023-06-22T13:11:42;21.50;99.90
19437;DHT22;9854;50.968;4.168;2023-06-22T13:14:08;21.50;99.90
19437;DHT22;9854;50.968;4.168;2023-06-22T13:16:33;21.30;99.90
19437;DHT22;9854;50.968;4.168;2023-06-22T13:18:59;21.40;99.90
19437;DHT22;9854;50.968;4.168;2023-06-22T13:21:24;21.40;99.90
19437;DHT22;9854;50.968;4.168;2023-06-22T13:23:50;21.40;99.90
19437;DHT22;9854;50.968;4.168;2023-06-22T13:26:19;21.30;99.90
19437;DHT22;9854;50.968;4.168;2023-06-22T13:28:44;20.80;99.90
19437;DHT22;9854;50.968;4.168;2023-06-22T13:31:10;20.40;99.90
19437;DHT22;9854;50.968;4.168;2023-06-22T13:33:37;20.20;99.90
19437;DHT22;9854;50.968;4.168;2023-06-22T13:36:03;20.00;99.90
19437;DHT22;9854;50.968;4.168;2023-06-22T13:38:29;19.90;99.90
19437;DHT22;9854;50.968;4.168;2023-06-22T13:40:56;19.80;99.90
19437;DHT22;9854;50.968;4.168;2023-06-22T13:43:27;19.70;99.90
19437;DHT22;9854;50.968;4.168;2023-06-22T13:45:52;19.70;99.90
19437;DHT22;9854;50.968;4.168;2023-06-22T13:48:18;19.70;99.90
19437;DHT22;9854;50.968;4.168;2023-06-22T13:50:44;19.90;99.90
19437;DHT22;9854;50.968;4.168;2023-06-22T13:53:09;20.10;99.90
19437;DHT22;9854;50.968;4.168;2023-06-22T13:55:35;20.20;99.90
19437;DHT22;9854;50.968;4.168;2023-06-22T13:58:00;20.40;99.90
19437;DHT22;9854;50.968;4.168;2023-06-22T14:00:26;20.40;99.90
19437;DHT22;9854;50.968;4.168;2023-06-22T14:02:53;20.00;99.90
19437;DHT22;9854;50.968;4.168;2023-06-22T14:05:19;19.90;99.90
19437;DHT22;9854;50.968;4.168;2023-06-22T14:07:45;19.90;99.90
19437;DHT22;9854;50.968;4.168;2023-06-22T14:10:11;19.90;99.90
19437;DHT22;9854;50.968;4.168;2023-06-22T14:12:36;20.10;99.90
19437;DHT22;9854;50.968;4.168;2023-06-22T14:15:02;20.10;99.90
19437;DHT22;9854;50.968;4.168;2023-06-22T14:17:28;20.00;99.90
19437;DHT22;9854;50.968;4.168;2023-06-22T14:19:53;20.10;99.90
19437;DHT22;9854;50.968;4.168;2023-06-22T14:22:20;19.90;99.90
19437;DHT22;9854;50.968;4.168;2023-06-22T14:24:47;19.80;99.90
19437;DHT22;9854;50.968;4.168;2023-06-22T14:27:13;19.70;99.90
19437;DHT22;9854;50.968;4.168;2023-06-22T14:29:38;19.70;99.90
19437;DHT22;9854;50.968;4.168;2023-06-22T14:32:04;19.80;99.90
19437;DHT22;9854;50.968;4.168;2023-06-22T14:34:32;19.50;99.90
19437;DHT22;9854;50.968;4.168;2023-06-22T14:36:57;19.50;99.90
19437;DHT22;9854;50.968;4.168;2023-06-22T14:39:23;19.40;99.90
19437;DHT22;9854;50.968;4.168;2023-06-22T14:41:49;19.40;99.90
19437;DHT22;9854;50.968;4.168;2023-06-22T14:44:15;19.60;99.90
19437;DHT22;9854;50.968;4.168;2023-06-22T14:46:40;19.60;99.90
19437;DHT22;9854;50.968;4.168;2023-06-22T14:49:06;19.80;99.90
19437;DHT22;9854;50.968;4.168;2023-06-22T14:51:32;19.70;99.90
19437;DHT22;9854;50.968;4.168;2023-06-22T14:53:57;19.70;99.90
19437;DHT22;9854;50.968;4.168;2023-06-22T14:56:23;19.70;99.90
19437;DHT22;9854;50.968;4.168;2023-06-22T14:58:48;19.70;99.90
19437;DHT22;9854;50.968;4.168;2023-06-22T15:01:16;19.70;99.90
19437;DHT22;9854;50.968;4.168;2023-06-22T15:03:42;19.90;99.90
19437;DHT22;9854;50.968;4.168;2023-06-22T15:06:08;20.00;99.90
19437;DHT22;9854;50.968;4.168;2023-06-22T15:08:36;20.10;99.90
19437;DHT22;9854;50.968;4.168;2023-06-22T15:11:02;20.10;99.90
19437;DHT22;9854;50.968;4.168;2023-06-22T15:13:27;20.00;99.90
19437;DHT22;9854;50.968;4.168;2023-06-22T15:15:55;20.00;99.90
19437;DHT22;9854;50.968;4.168;2023-06-22T15:18:21;20.00;99.90
19437;DHT22;9854;50.968;4.168;2023-06-22T15:20:46;20.00;99.90
19437;DHT22;9854;50.968;4.168;2023-06-22T15:23:13;19.90;99.90
19437;DHT22;9854;50.968;4.168;2023-06-22T15:25:39;19.90;99.90
19437;DHT22;9854;50.968;4.168;2023-06-22T15:28:04;19.90;99.90
19437;DHT22;9854;50.968;4.168;2023-06-22T15:30:30;20.10;99.90
19437;DHT22;9854;50.968;4.168;2023-06-22T15:32:57;20.30;99.90
19437;DHT22;9854;50.968;4.168;2023-06-22T15:35:22;20.50;99.90
19437;DHT22;9854;50.968;4.168;2023-06-22T15:37:48;20.60;99.90
19437;DHT22;9854;50.968;4.168;2023-06-22T15:40:14;20.60;99.90
19437;DHT22;9854;50.968;4.168;2023-06-22T15:42:40;20.50;99.90